sensor_id;sensor_type;location;lat;lon;timestamp;pressure;altitude;pressure_sealevel;temperature;humidity
69848;BME280;57143;55.940;37.496;2023-07-24T00:01:21;98271.72;;;13.87;100.00
69848;BME280;57143;55.940;37.496;2023-07-24T00:03:48;98270.09;;;13.81;100.00
69848;BME280;57143;55.940;37.496;2023-07-24T00:06:15;98267.38;;;13.76;100.00
69848;BME280;57143;55.940;37.496;2023-07-24T00:08:44;98276.38;;;13.82;100.00
69848;BME280;57143;55.940;37.496;2023-07-24T00:11:11;98288.34;;;13.81;100.00
69848;BME280;57143;55.940;37.496;2023-07-24T00:13:38;98278.84;;;13.78;100.00
69848;BME280;57143;55.940;37.496;2023-07-24T00:16:09;98278.56;;;13.75;100.00
69848;BME280;57143;55.940;37.496;2023-07-24T00:18:36;98277.19;;;13.72;100.00
69848;BME280;57143;55.940;37.496;2023-07-24T00:21:03;98275.84;;;13.70;100.00
69848;BME280;57143;55.940;37.496;2023-07-24T00:23:30;98281.00;;;13.66;100.00
69848;BME280;57143;55.940;37.496;2023-07-24T00:25:59;98276.09;;;13.63;100.00
69848;BME280;57143;55.940;37.496;2023-07-24T00:28:26;98275.00;;;13.59;100.00
69848;BME280;57143;55.940;37.496;2023-07-24T00:30:53;98268.47;;;13.55;100.00
69848;BME280;57143;55.940;37.496;2023-07-24T00:33:22;98202.31;;;13.55;100.00
69848;BME280;57143;55.940;37.496;2023-07-24T00:35:49;98203.41;;;13.49;100.00
69848;BME280;57143;55.940;37.496;2023-07-24T00:38:16;98179.72;;;13.39;100.00
69848;BME280;57143;55.940;37.496;2023-07-24T00:40:43;98203.69;;;13.47;100.00
69848;BME280;57143;55.940;37.496;2023-07-24T00:43:12;98203.97;;;13.46;100.00
69848;BME280;57143;55.940;37.496;2023-07-24T00:45:39;98212.94;;;13.46;100.00
69848;BME280;57143;55.940;37.496;2023-07-24T00:48:06;98214.03;;;13.45;100.00
69848;BME280;57143;55.940;37.496;2023-07-24T00:50:34;98209.38;;;13.41;100.00
69848;BME280;57143;55.940;37.496;2023-07-24T00:53:02;98218.91;;;13.43;100.00
69848;BME280;57143;55.940;37.496;2023-07-24T00:55:30;98209.38;;;13.36;100.00
69848;BME280;57143;55.940;37.496;2023-07-24T00:57:58;98218.09;;;13.38;100.00
69848;BME280;57143;55.940;37.496;2023-07-24T01:00:27;98225.19;;;13.39;100.00
69848;BME280;57143;55.940;37.496;2023-07-24T01:02:55;98231.16;;;13.36;100.00
69848;BME280;57143;55.940;37.496;2023-07-24T01:05:25;98224.63;;;13.37;100.00
69848;BME280;57143;55.940;37.496;2023-07-24T01:07:52;98225.72;;;13.36;100.00
69848;BME280;57143;55.940;37.496;2023-07-24T01:10:19;98223.81;;;13.31;100.00
69848;BME280;57143;55.940;37.496;2023-07-24T01:12:51;98190.31;;;13.11;100.00
69848;BME280;57143;55.940;37.496;2023-07-24T01:15:27;98215.91;;;13.30;100.00
69848;BME280;57143;55.940;37.496;2023-07-24T01:17:59;98199.59;;;13.20;100.00
69848;BME280;57143;55.940;37.496;2023-07-24T01:20:29;98153.28;;;12.90;100.00
69848;BME280;57143;55.940;37.496;2023-07-24T01:23:22;98221.09;;;13.36;100.00
69848;BME280;57143;55.940;37.496;2023-07-24T01:25:56;98211.59;;;13.34;100.00
69848;BME280;57143;55.940;37.496;2023-07-24T01:28:24;98204.47;;;13.33;100.00
69848;BME280;57143;55.940;37.496;2023-07-24T01:30:51;98208.84;;;13.44;100.00
69848;BME280;57143;55.940;37.496;2023-07-24T01:33:19;98200.16;;;13.42;100.00
69848;BME280;57143;55.940;37.496;2023-07-24T01:35:48;98209.13;;;13.42;100.00
69848;BME280;57143;55.940;37.496;2023-07-24T01:38:17;98202.59;;;13.43;100.00
69848;BME280;57143;55.940;37.496;2023-07-24T01:40:45;98207.19;;;13.48;100.00
69848;BME280;57143;55.940;37.496;2023-07-24T01:43:14;98212.13;;;13.46;100.00
69848;BME280;57143;55.940;37.496;2023-07-24T01:45:41;98226.00;;;13.54;100.00
69848;BME280;57143;55.940;37.496;2023-07-24T01:48:08;98320.19;;;13.50;100.00
69848;BME280;57143;55.940;37.496;2023-07-24T01:50:36;98321.03;;;13.61;100.00
69848;BME280;57143;55.940;37.496;2023-07-24T01:53:03;98319.41;;;13.65;100.00
69848;BME280;57143;55.940;37.496;2023-07-24T01:55:30;98328.66;;;13.69;100.00
69848;BME280;57143;55.940;37.496;2023-07-24T01:57:57;98338.47;;;14.05;100.00
69848;BME280;57143;55.940;37.496;2023-07-24T02:00:26;98348.47;;;14.80;100.00
69848;BME280;57143;55.940;37.496;2023-07-24T02:02:53;98355.88;;;15.43;100.00
69848;BME280;57143;55.940;37.496;2023-07-24T02:05:21;98359.06;;;15.99;100.00
69848;BME280;57143;55.940;37.496;2023-07-24T02:07:48;98342.22;;;16.54;100.00
69848;BME280;57143;55.940;37.496;2023-07-24T02:10:15;98320.97;;;16.93;100.00
69848;BME280;57143;55.940;37.496;2023-07-24T02:12:43;98279.09;;;17.54;100.00
69848;BME280;57143;55.940;37.496;2023-07-24T02:15:10;98200.78;;;17.53;100.00
69848;BME280;57143;55.940;37.496;2023-07-24T02:17:39;98164.28;;;18.16;100.00
69848;BME280;57143;55.940;37.496;2023-07-24T02:20:09;98214.72;;;18.48;100.00
69848;BME280;57143;55.940;37.496;2023-07-24T02:22:48;98272.97;;;18.58;100.00
69848;BME280;57143;55.940;37.496;2023-07-24T02:25:16;98298.09;;;18.79;100.00
69848;BME280;57143;55.940;37.496;2023-07-24T02:27:45;98359.13;;;19.30;100.00
69848;BME280;57143;55.940;37.496;2023-07-24T02:30:12;98463.22;;;19.86;100.00
69848;BME280;57143;55.940;37.496;2023-07-24T02:32:40;98491.63;;;20.22;100.00
69848;BME280;57143;55.940;37.496;2023-07-24T02:35:08;98544.88;;;20.53;100.00
69848;BME280;57143;55.940;37.496;2023-07-24T02:37:35;98568.66;;;20.71;100.00
69848;BME280;57143;55.940;37.496;2023-07-24T02:40:03;98611.94;;;21.28;100.00
69848;BME280;57143;55.940;37.496;2023-07-24T02:42:32;98636.94;;;21.54;100.00
69848;BME280;57143;55.940;37.496;2023-07-24T02:45:00;98661.81;;;21.62;100.00
69848;BME280;57143;55.940;37.496;2023-07-24T02:47:28;98675.66;;;21.71;100.00
69848;BME280;57143;55.940;37.496;2023-07-24T02:49:56;98698.94;;;22.01;100.00
69848;BME280;57143;55.940;37.496;2023-07-24T02:52:23;98706.75;;;22.38;100.00
69848;BME280;57143;55.940;37.496;2023-07-24T02:54:50;98729.84;;;22.42;100.00
69848;BME280;57143;55.940;37.496;2023-07-24T02:57:18;98740.56;;;22.74;100.00
69848;BME280;57143;55.940;37.496;2023-07-24T02:59:45;98750.34;;;22.80;100.00
69848;BME280;57143;55.940;37.496;2023-07-24T03:02:13;98757.69;;;22.84;100.00
69848;BME280;57143;55.940;37.496;2023-07-24T03:04:40;98769.06;;;22.83;100.00
69848;BME280;57143;55.940;37.496;2023-07-24T03:07:08;98770.16;;;22.73;100.00
69848;BME280;57143;55.940;37.496;2023-07-24T03:09:36;98763.34;;;22.18;100.00
69848;BME280;57143;55.940;37.496;2023-07-24T03:12:03;98738.59;;;21.47;100.00
69848;BME280;57143;55.940;37.496;2023-07-24T03:14:30;98740.72;;;21.14;100.00
69848;BME280;57143;55.940;37.496;2023-07-24T03:16:57;98728.19;;;20.54;100.00
69848;BME280;57143;55.940;37.496;2023-07-24T03:19:25;98708.97;;;19.76;100.00
69848;BME280;57143;55.940;37.496;2023-07-24T03:21:52;98681.19;;;19.08;100.00
69848;BME280;57143;55.940;37.496;2023-07-24T03:24:20;98667.22;;;18.68;100.00
69848;BME280;57143;55.940;37.496;2023-07-24T03:26:47;98652.28;;;18.55;100.00
69848;BME280;57143;55.940;37.496;2023-07-24T03:29:15;98641.13;;;18.47;100.00
69848;BME280;57143;55.940;37.496;2023-07-24T03:31:42;98609.09;;;18.18;100.00
69848;BME280;57143;55.940;37.496;2023-07-24T03:34:09;98623.50;;;18.53;100.00
69848;BME280;57143;55.940;37.496;2023-07-24T03:36:36;98632.25;;;19.10;100.00
69848;BME280;57143;55.940;37.496;2023-07-24T03:39:06;98643.72;;;19.82;100.00
69848;BME280;57143;55.940;37.496;2023-07-24T03:41:35;98660.50;;;20.39;100.00
69848;BME280;57143;55.940;37.496;2023-07-24T03:44:02;98673.88;;;20.32;100.00
69848;BME280;57143;55.940;37.496;2023-07-24T03:46:31;98677.88;;;19.94;100.00
69848;BME280;57143;55.940;37.496;2023-07-24T03:48:58;98670.22;;;19.59;100.00
69848;BME280;57143;55.940;37.496;2023-07-24T03:51:25;98651.47;;;19.47;100.00
69848;BME280;57143;55.940;37.496;2023-07-24T03:53:52;98657.84;;;19.24;100.00
69848;BME280;57143;55.940;37.496;2023-07-24T03:56:20;98649.72;;;19.01;100.00
69848;BME280;57143;55.940;37.496;2023-07-24T03:58:48;98637.25;;;18.71;100.00
69848;BME280;57143;55.940;37.496;2023-07-24T04:01:15;98614.50;;;18.47;100.00
69848;BME280;57143;55.940;37.496;2023-07-24T04:03:42;98616.09;;;18.29;100.00
69848;BME280;57143;55.940;37.496;2023-07-24T04:06:10;98616.16;;;18.24;100.00
69848;BME280;57143;55.940;37.496;2023-07-24T04:08:37;98607.69;;;18.21;100.00
69848;BME280;57143;55.940;37.496;2023-07-24T04:11:04;98610.22;;;17.94;100.00
69848;BME280;57143;55.940;37.496;2023-07-24T04:13:31;98591.25;;;17.97;100.00
69848;BME280;57143;55.940;37.496;2023-07-24T04:16:00;98604.00;;;18.07;100.00
69848;BME280;57143;55.940;37.496;2023-07-24T04:18:27;98595.56;;;18.03;100.00
69848;BME280;57143;55.940;37.496;2023-07-24T04:20:55;98594.13;;;17.87;100.00
69848;BME280;57143;55.940;37.496;2023-07-24T04:23:22;98605.84;;;18.16;100.00
69848;BME280;57143;55.940;37.496;2023-07-24T04:25:50;98604.41;;;18.19;100.00
69848;BME280;57143;55.940;37.496;2023-07-24T04:28:17;98609.50;;;18.30;100.00
69848;BME280;57143;55.940;37.496;2023-07-24T04:30:44;98613.47;;;18.43;100.00
69848;BME280;57143;55.940;37.496;2023-07-24T04:33:13;98611.34;;;18.77;100.00
69848;BME280;57143;55.940;37.496;2023-07-24T04:35:40;98615.28;;;18.71;100.00
69848;BME280;57143;55.940;37.496;2023-07-24T04:38:07;98613.66;;;18.89;100.00
69848;BME280;57143;55.940;37.496;2023-07-24T04:40:34;98609.88;;;19.03;100.00
69848;BME280;57143;55.940;37.496;2023-07-24T04:43:02;98608.81;;;18.99;100.00
69848;BME280;57143;55.940;37.496;2023-07-24T04:45:29;98580.63;;;18.94;100.00
69848;BME280;57143;55.940;37.496;2023-07-24T04:47:57;98621.63;;;19.22;100.00
69848;BME280;57143;55.940;37.496;2023-07-24T04:50:25;98609.78;;;19.08;100.00
69848;BME280;57143;55.940;37.496;2023-07-24T04:52:52;98629.38;;;19.20;100.00
69848;BME280;57143;55.940;37.496;2023-07-24T04:55:19;98632.13;;;19.20;100.00
69848;BME280;57143;55.940;37.496;2023-07-24T04:57:47;98629.50;;;19.29;100.00
69848;BME280;57143;55.940;37.496;2023-07-24T05:00:14;98619.69;;;19.23;100.00
69848;BME280;57143;55.940;37.496;2023-07-24T05:02:42;98613.81;;;19.29;100.00
69848;BME280;57143;55.940;37.496;2023-07-24T05:05:09;98629.75;;;19.32;100.00
69848;BME280;57143;55.940;37.496;2023-07-24T05:07:38;98625.22;;;19.04;100.00
69848;BME280;57143;55.940;37.496;2023-07-24T05:10:06;98622.41;;;18.91;100.00
69848;BME280;57143;55.940;37.496;2023-07-24T05:12:33;98619.63;;;19.09;100.00
69848;BME280;57143;55.940;37.496;2023-07-24T05:15:00;98623.47;;;19.45;100.00
69848;BME280;57143;55.940;37.496;2023-07-24T05:17:30;98632.81;;;19.31;100.00
69848;BME280;57143;55.940;37.496;2023-07-24T05:19:57;98643.94;;;20.12;100.00
69848;BME280;57143;55.940;37.496;2023-07-24T05:22:24;98663.28;;;20.89;100.00
69848;BME280;57143;55.940;37.496;2023-07-24T05:24:53;98695.31;;;21.12;100.00
69848;BME280;57143;55.940;37.496;2023-07-24T05:27:20;98707.06;;;20.77;100.00
69848;BME280;57143;55.940;37.496;2023-07-24T05:29:47;98706.97;;;20.82;100.00
69848;BME280;57143;55.940;37.496;2023-07-24T05:32:15;98688.72;;;20.45;100.00
69848;BME280;57143;55.940;37.496;2023-07-24T05:34:42;98689.25;;;20.47;100.00
69848;BME280;57143;55.940;37.496;2023-07-24T05:37:09;98692.63;;;20.30;100.00
69848;BME280;57143;55.940;37.496;2023-07-24T05:39:36;98687.44;;;19.97;100.00
69848;BME280;57143;55.940;37.496;2023-07-24T05:42:05;98680.72;;;20.03;100.00
69848;BME280;57143;55.940;37.496;2023-07-24T05:44:32;98674.88;;;19.77;100.00
69848;BME280;57143;55.940;37.496;2023-07-24T05:47:01;98668.88;;;19.75;100.00
69848;BME280;57143;55.940;37.496;2023-07-24T05:49:28;98674.28;;;19.80;100.00
69848;BME280;57143;55.940;37.496;2023-07-24T05:51:56;98671.56;;;19.62;100.00
69848;BME280;57143;55.940;37.496;2023-07-24T05:54:23;98651.72;;;19.32;100.00
69848;BME280;57143;55.940;37.496;2023-07-24T05:56:52;98653.56;;;19.37;100.00
69848;BME280;57143;55.940;37.496;2023-07-24T05:59:20;98667.16;;;19.10;100.00
69848;BME280;57143;55.940;37.496;2023-07-24T06:01:48;98653.22;;;18.88;100.00
69848;BME280;57143;55.940;37.496;2023-07-24T06:04:15;98648.00;;;18.68;100.00
69848;BME280;57143;55.940;37.496;2023-07-24T06:06:43;98648.97;;;18.58;100.00
69848;BME280;57143;55.940;37.496;2023-07-24T06:09:10;98635.63;;;18.47;100.00
69848;BME280;57143;55.940;37.496;2023-07-24T06:11:37;98615.84;;;18.26;100.00
69848;BME280;57143;55.940;37.496;2023-07-24T06:14:05;98621.28;;;18.31;100.00
69848;BME280;57143;55.940;37.496;2023-07-24T06:16:33;98603.78;;;18.27;100.00
69848;BME280;57143;55.940;37.496;2023-07-24T06:19:00;98605.63;;;18.31;100.00
69848;BME280;57143;55.940;37.496;2023-07-24T06:21:27;98593.91;;;18.26;100.00
69848;BME280;57143;55.940;37.496;2023-07-24T06:23:55;98598.00;;;18.28;100.00
69848;BME280;57143;55.940;37.496;2023-07-24T06:26:22;98608.31;;;18.36;100.00
69848;BME280;57143;55.940;37.496;2023-07-24T06:28:49;98583.22;;;18.24;100.00
69848;BME280;57143;55.940;37.496;2023-07-24T06:31:16;98600.81;;;18.23;100.00
69848;BME280;57143;55.940;37.496;2023-07-24T06:33:45;98595.03;;;18.25;100.00
69848;BME280;57143;55.940;37.496;2023-07-24T06:36:12;98581.00;;;18.26;100.00
69848;BME280;57143;55.940;37.496;2023-07-24T06:38:39;98582.78;;;18.17;100.00
69848;BME280;57143;55.940;37.496;2023-07-24T06:41:08;98570.03;;;18.26;100.00
69848;BME280;57143;55.940;37.496;2023-07-24T06:43:35;98574.41;;;18.27;100.00
69848;BME280;57143;55.940;37.496;2023-07-24T06:46:02;98572.41;;;18.33;100.00
69848;BME280;57143;55.940;37.496;2023-07-24T06:48:29;98578.16;;;18.55;100.00
69848;BME280;57143;55.940;37.496;2023-07-24T06:50:58;98584.78;;;18.73;100.00
69848;BME280;57143;55.940;37.496;2023-07-24T06:53:25;98588.19;;;18.83;100.00
69848;BME280;57143;55.940;37.496;2023-07-24T06:55:52;98587.97;;;18.80;100.00
69848;BME280;57143;55.940;37.496;2023-07-24T06:58:19;98591.28;;;18.95;100.00
69848;BME280;57143;55.940;37.496;2023-07-24T07:00:46;98605.09;;;19.09;100.00
69848;BME280;57143;55.940;37.496;2023-07-24T07:03:14;98599.50;;;19.14;100.00
69848;BME280;57143;55.940;37.496;2023-07-24T07:05:41;98592.81;;;19.38;100.00
69848;BME280;57143;55.940;37.496;2023-07-24T07:08:09;98605.88;;;19.28;100.00
69848;BME280;57143;55.940;37.496;2023-07-24T07:10:37;98609.78;;;19.08;100.00
69848;BME280;57143;55.940;37.496;2023-07-24T07:13:04;98615.50;;;18.93;100.00
69848;BME280;57143;55.940;37.496;2023-07-24T07:15:31;98611.78;;;18.66;100.00
69848;BME280;57143;55.940;37.496;2023-07-24T07:17:58;98620.75;;;18.90;100.00
69848;BME280;57143;55.940;37.496;2023-07-24T07:20:25;98583.19;;;19.04;100.00
69848;BME280;57143;55.940;37.496;2023-07-24T07:22:52;98601.97;;;19.15;100.00
69848;BME280;57143;55.940;37.496;2023-07-24T07:25:21;98615.84;;;19.42;100.00
69848;BME280;57143;55.940;37.496;2023-07-24T07:27:48;98617.94;;;19.32;100.00
69848;BME280;57143;55.940;37.496;2023-07-24T07:30:15;98629.28;;;19.44;100.00
69848;BME280;57143;55.940;37.496;2023-07-24T07:32:42;98624.56;;;19.26;100.00
69848;BME280;57143;55.940;37.496;2023-07-24T07:35:09;98622.81;;;19.16;100.00
69848;BME280;57143;55.940;37.496;2023-07-24T07:37:37;98621.41;;;19.37;100.00
69848;BME280;57143;55.940;37.496;2023-07-24T07:40:05;98603.28;;;19.18;100.00
69848;BME280;57143;55.940;37.496;2023-07-24T07:42:35;98614.72;;;19.25;100.00
69848;BME280;57143;55.940;37.496;2023-07-24T07:45:02;98609.91;;;19.35;100.00
69848;BME280;57143;55.940;37.496;2023-07-24T07:47:32;98595.88;;;19.18;100.00
69848;BME280;57143;55.940;37.496;2023-07-24T07:49:59;98610.44;;;19.19;100.00
69848;BME280;57143;55.940;37.496;2023-07-24T07:52:26;98613.03;;;19.10;100.00
69848;BME280;57143;55.940;37.496;2023-07-24T07:54:53;98601.03;;;19.06;100.00
69848;BME280;57143;55.940;37.496;2023-07-24T07:57:20;98600.44;;;18.91;100.00
69848;BME280;57143;55.940;37.496;2023-07-24T07:59:49;98600.72;;;18.52;100.00
69848;BME280;57143;55.940;37.496;2023-07-24T08:02:16;98597.59;;;18.40;100.00
69848;BME280;57143;55.940;37.496;2023-07-24T08:04:43;98588.00;;;18.37;100.00
69848;BME280;57143;55.940;37.496;2023-07-24T08:07:10;98584.34;;;18.23;100.00
69848;BME280;57143;55.940;37.496;2023-07-24T08:09:37;98579.63;;;18.29;100.00
69848;BME280;57143;55.940;37.496;2023-07-24T08:12:06;98562.56;;;18.32;100.00
69848;BME280;57143;55.940;37.496;2023-07-24T08:14:33;98563.88;;;18.58;100.00
69848;BME280;57143;55.940;37.496;2023-07-24T08:17:02;98561.72;;;18.74;100.00
69848;BME280;57143;55.940;37.496;2023-07-24T08:19:29;98565.63;;;18.86;100.00
69848;BME280;57143;55.940;37.496;2023-07-24T08:21:56;98555.94;;;18.75;100.00
69848;BME280;57143;55.940;37.496;2023-07-24T08:24:24;98561.72;;;18.74;100.00
69848;BME280;57143;55.940;37.496;2023-07-24T08:26:51;98553.88;;;18.67;100.00
69848;BME280;57143;55.940;37.496;2023-07-24T08:29:18;98529.88;;;18.35;100.00
69848;BME280;57143;55.940;37.496;2023-07-24T08:31:45;98536.69;;;18.38;100.00
69848;BME280;57143;55.940;37.496;2023-07-24T08:34:14;98542.47;;;18.36;100.00
69848;BME280;57143;55.940;37.496;2023-07-24T08:36:41;98536.22;;;18.12;100.00
69848;BME280;57143;55.940;37.496;2023-07-24T08:39:09;98532.69;;;18.12;100.00
69848;BME280;57143;55.940;37.496;2023-07-24T08:41:36;98533.09;;;18.00;100.00
69848;BME280;57143;55.940;37.496;2023-07-24T08:44:05;98506.78;;;17.76;100.00
69848;BME280;57143;55.940;37.496;2023-07-24T08:46:35;98507.09;;;17.74;100.00
69848;BME280;57143;55.940;37.496;2023-07-24T08:49:03;98496.06;;;17.79;100.00
69848;BME280;57143;55.940;37.496;2023-07-24T08:51:32;98473.47;;;17.69;100.00
69848;BME280;57143;55.940;37.496;2023-07-24T08:54:01;98476.44;;;17.72;100.00
69848;BME280;57143;55.940;37.496;2023-07-24T08:56:29;98457.13;;;17.59;100.00
69848;BME280;57143;55.940;37.496;2023-07-24T08:58:57;98424.63;;;17.52;100.00
69848;BME280;57143;55.940;37.496;2023-07-24T09:01:24;98418.91;;;17.49;100.00
69848;BME280;57143;55.940;37.496;2023-07-24T09:03:52;98357.88;;;17.19;100.00
69848;BME280;57143;55.940;37.496;2023-07-24T09:06:19;98392.56;;;17.53;100.00
69848;BME280;57143;55.940;37.496;2023-07-24T09:08:47;98384.03;;;17.54;100.00
69848;BME280;57143;55.940;37.496;2023-07-24T09:11:15;98369.00;;;17.28;100.00
69848;BME280;57143;55.940;37.496;2023-07-24T09:13:43;98382.56;;;17.38;100.00
69848;BME280;57143;55.940;37.496;2023-07-24T09:16:21;98362.94;;;17.31;100.00
69848;BME280;57143;55.940;37.496;2023-07-24T09:18:49;98358.34;;;17.26;100.00
69848;BME280;57143;55.940;37.496;2023-07-24T09:21:27;98354.94;;;17.34;100.00
69848;BME280;57143;55.940;37.496;2023-07-24T09:23:55;98349.03;;;17.51;100.00
69848;BME280;57143;55.940;37.496;2023-07-24T09:26:23;98348.19;;;17.69;100.00
69848;BME280;57143;55.940;37.496;2023-07-24T09:28:54;98344.00;;;17.58;100.00
69848;BME280;57143;55.940;37.496;2023-07-24T09:31:21;98320.44;;;17.57;100.00
69848;BME280;57143;55.940;37.496;2023-07-24T09:33:48;98333.31;;;17.75;100.00
69848;BME280;57143;55.940;37.496;2023-07-24T09:36:16;98338.25;;;17.92;100.00
69848;BME280;57143;55.940;37.496;2023-07-24T09:38:43;98319.16;;;17.87;100.00
69848;BME280;57143;55.940;37.496;2023-07-24T09:41:13;98325.59;;;17.96;100.00
69848;BME280;57143;55.940;37.496;2023-07-24T09:43:42;98320.56;;;18.03;100.00
69848;BME280;57143;55.940;37.496;2023-07-24T09:46:09;98323.25;;;18.21;100.00
69848;BME280;57143;55.940;37.496;2023-07-24T09:48:36;98302.59;;;18.10;100.00
69848;BME280;57143;55.940;37.496;2023-07-24T09:51:04;98302.44;;;18.20;100.00
69848;BME280;57143;55.940;37.496;2023-07-24T09:53:33;98268.75;;;18.01;100.00
69848;BME280;57143;55.940;37.496;2023-07-24T09:56:02;98293.59;;;18.23;100.00
69848;BME280;57143;55.940;37.496;2023-07-24T09:58:33;98286.91;;;17.97;100.00
69848;BME280;57143;55.940;37.496;2023-07-24T10:01:02;98290.47;;;17.98;100.00
69848;BME280;57143;55.940;37.496;2023-07-24T10:03:32;98291.34;;;18.12;100.00
69848;BME280;57143;55.940;37.496;2023-07-24T10:06:00;98285.25;;;18.15;100.00
69848;BME280;57143;55.940;37.496;2023-07-24T10:08:28;98286.38;;;18.27;100.00
69848;BME280;57143;55.940;37.496;2023-07-24T10:10:56;98265.88;;;18.25;100.00
69848;BME280;57143;55.940;37.496;2023-07-24T10:13:26;98273.75;;;18.13;100.00
69848;BME280;57143;55.940;37.496;2023-07-24T10:15:56;98260.88;;;18.13;100.00
69848;BME280;57143;55.940;37.496;2023-07-24T10:18:26;98192.59;;;17.66;100.00
69848;BME280;57143;55.940;37.496;2023-07-24T10:21:00;98225.66;;;17.88;100.00
69848;BME280;57143;55.940;37.496;2023-07-24T10:23:28;98237.28;;;17.67;100.00
69848;BME280;57143;55.940;37.496;2023-07-24T10:25:55;98238.53;;;17.56;100.00
69848;BME280;57143;55.940;37.496;2023-07-24T10:28:30;98229.09;;;17.24;100.00
69848;BME280;57143;55.940;37.496;2023-07-24T10:31:00;98233.53;;;17.02;100.00
69848;BME280;57143;55.940;37.496;2023-07-24T10:33:30;98238.91;;;16.70;100.00
69848;BME280;57143;55.940;37.496;2023-07-24T10:36:04;98225.56;;;16.63;100.00
69848;BME280;57143;55.940;37.496;2023-07-24T10:38:34;98222.38;;;16.56;100.00
69848;BME280;57143;55.940;37.496;2023-07-24T10:41:02;98194.38;;;16.41;100.00
69848;BME280;57143;55.940;37.496;2023-07-24T10:43:40;98192.41;;;16.41;100.00
69848;BME280;57143;55.940;37.496;2023-07-24T10:46:09;98172.53;;;16.36;100.00
69848;BME280;57143;55.940;37.496;2023-07-24T10:48:36;98166.84;;;16.32;100.00
69848;BME280;57143;55.940;37.496;2023-07-24T10:51:07;98163.75;;;16.39;100.00
69848;BME280;57143;55.940;37.496;2023-07-24T10:53:35;98160.38;;;16.47;100.00
69848;BME280;57143;55.940;37.496;2023-07-24T10:56:03;98154.63;;;16.48;100.00
69848;BME280;57143;55.940;37.496;2023-07-24T10:58:32;98154.63;;;16.48;100.00
69848;BME280;57143;55.940;37.496;2023-07-24T11:01:04;98152.28;;;16.60;100.00
69848;BME280;57143;55.940;37.496;2023-07-24T11:03:35;98149.47;;;16.65;100.00
69848;BME280;57143;55.940;37.496;2023-07-24T11:06:03;98144.97;;;16.56;100.00
69848;BME280;57143;55.940;37.496;2023-07-24T11:08:31;98143.13;;;16.51;100.00
69848;BME280;57143;55.940;37.496;2023-07-24T11:10:59;98141.19;;;16.52;100.00
69848;BME280;57143;55.940;37.496;2023-07-24T11:13:29;98128.97;;;16.44;100.00
69848;BME280;57143;55.940;37.496;2023-07-24T11:15:56;98128.31;;;16.52;100.00
69848;BME280;57143;55.940;37.496;2023-07-24T11:18:30;98126.63;;;16.56;100.00
69848;BME280;57143;55.940;37.496;2023-07-24T11:20:59;98104.91;;;16.41;100.00
69848;BME280;57143;55.940;37.496;2023-07-24T11:23:26;98114.53;;;16.39;100.00
69848;BME280;57143;55.940;37.496;2023-07-24T11:25:54;98113.63;;;16.43;100.00
69848;BME280;57143;55.940;37.496;2023-07-24T11:28:22;98115.13;;;16.36;100.00
69848;BME280;57143;55.940;37.496;2023-07-24T11:30:50;98107.78;;;16.31;100.00
69848;BME280;57143;55.940;37.496;2023-07-24T11:33:17;98098.78;;;16.31;100.00
69848;BME280;57143;55.940;37.496;2023-07-24T11:35:45;98107.47;;;16.33;100.00
69848;BME280;57143;55.940;37.496;2023-07-24T11:38:14;98091.44;;;16.26;100.00
69848;BME280;57143;55.940;37.496;2023-07-24T11:40:42;98099.28;;;16.33;100.00
69848;BME280;57143;55.940;37.496;2023-07-24T11:43:16;98101.94;;;16.38;100.00
69848;BME280;57143;55.940;37.496;2023-07-24T11:45:44;98084.84;;;16.51;100.00
69848;BME280;57143;55.940;37.496;2023-07-24T11:48:12;98077.03;;;16.63;100.00
69848;BME280;57143;55.940;37.496;2023-07-24T11:50:44;98078.28;;;16.70;100.00
69848;BME280;57143;55.940;37.496;2023-07-24T11:53:21;98072.59;;;16.67;100.00
69848;BME280;57143;55.940;37.496;2023-07-24T11:55:49;98071.19;;;16.69;100.00
69848;BME280;57143;55.940;37.496;2023-07-24T11:58:17;98061.50;;;16.77;100.00
69848;BME280;57143;55.940;37.496;2023-07-24T12:00:46;98063.34;;;16.81;100.00
69848;BME280;57143;55.940;37.496;2023-07-24T12:03:14;98063.16;;;16.91;100.00
69848;BME280;57143;55.940;37.496;2023-07-24T12:05:43;98056.06;;;16.90;100.00
69848;BME280;57143;55.940;37.496;2023-07-24T12:08:11;98053.03;;;16.92;100.00
69848;BME280;57143;55.940;37.496;2023-07-24T12:10:41;98045.13;;;16.90;100.00
69848;BME280;57143;55.940;37.496;2023-07-24T12:13:08;98042.44;;;17.04;100.00
69848;BME280;57143;55.940;37.496;2023-07-24T12:15:36;98041.84;;;17.07;100.00
69848;BME280;57143;55.940;37.496;2023-07-24T12:18:04;98036.13;;;17.22;100.00
69848;BME280;57143;55.940;37.496;2023-07-24T12:20:32;98029.13;;;17.29;100.00
69848;BME280;57143;55.940;37.496;2023-07-24T12:23:00;98017.16;;;17.25;100.00
69848;BME280;57143;55.940;37.496;2023-07-24T12:25:27;98033.38;;;17.22;100.00
69848;BME280;57143;55.940;37.496;2023-07-24T12:27:56;98021.19;;;17.14;100.00
69848;BME280;57143;55.940;37.496;2023-07-24T12:30:23;98023.69;;;17.11;100.00
69848;BME280;57143;55.940;37.496;2023-07-24T12:32:50;98023.41;;;17.12;100.00
69848;BME280;57143;55.940;37.496;2023-07-24T12:35:18;98017.41;;;17.10;100.00
69848;BME280;57143;55.940;37.496;2023-07-24T12:37:45;98005.25;;;17.03;100.00
69848;BME280;57143;55.940;37.496;2023-07-24T12:40:13;98020.56;;;17.17;100.00
69848;BME280;57143;55.940;37.496;2023-07-24T12:42:40;98023.91;;;17.14;100.00
69848;BME280;57143;55.940;37.496;2023-07-24T12:45:09;98014.97;;;17.09;100.00